createdAt,value
2023-04-28T00:01:14.710Z,6.70
2023-04-28T00:03:43.810Z,7.78
2023-04-28T00:06:13.230Z,7.93
2023-04-28T00:08:43.944Z,8.50
2023-04-28T00:11:13.091Z,7.28
2023-04-28T00:13:42.035Z,7.50
2023-04-28T00:16:11.051Z,6.80
2023-04-28T00:18:40.290Z,6.97
2023-04-28T00:21:09.599Z,7.50
2023-04-28T00:23:38.619Z,7.97
2023-04-28T00:26:09.247Z,6.93
2023-04-28T00:28:38.167Z,6.85
2023-04-28T00:31:16.679Z,7.25
2023-04-28T00:33:46.145Z,7.07
2023-04-28T00:36:15.192Z,6.80
2023-04-28T00:38:44.201Z,7.43
2023-04-28T00:41:16.383Z,6.60
2023-04-28T00:43:49.556Z,7.38
2023-04-28T00:46:24.031Z,6.65
2023-04-28T00:48:53.183Z,7.65
2023-04-28T00:51:22.461Z,7.57
2023-04-28T00:53:52.451Z,7.28
2023-04-28T00:56:23.430Z,7.53
2023-04-28T00:58:52.375Z,7.28
2023-04-28T01:01:21.397Z,7.28
2023-04-28T01:03:50.715Z,7.68
2023-04-28T01:06:21.304Z,7.57
2023-04-28T01:08:54.338Z,7.93
2023-04-28T01:11:25.017Z,7.55
2023-04-28T01:13:54.137Z,6.30
2023-04-28T01:16:23.206Z,7.05
2023-04-28T01:18:52.218Z,7.20
2023-04-28T01:21:29.894Z,6.05
2023-04-28T01:24:00.915Z,7.00
2023-04-28T01:26:29.927Z,6.88
2023-04-28T01:28:58.920Z,6.60
2023-04-28T01:31:27.984Z,7.07
2023-04-28T01:33:57.053Z,7.07
2023-04-28T01:36:28.133Z,7.15
2023-04-28T01:38:57.135Z,6.93
2023-04-28T01:41:27.945Z,6.95
2023-04-28T01:43:57.018Z,7.22
2023-04-28T01:46:26.102Z,6.90
2023-04-28T01:48:55.240Z,6.72
2023-04-28T01:51:24.327Z,7.25
2023-04-28T01:53:53.270Z,7.07
2023-04-28T01:56:22.184Z,6.85
2023-04-28T01:58:52.816Z,7.10
2023-04-28T02:01:21.901Z,7.18
2023-04-28T02:03:51.416Z,7.30
2023-04-28T02:06:20.561Z,6.85
2023-04-28T02:08:49.515Z,6.97
2023-04-28T02:11:18.462Z,7.57
2023-04-28T02:13:48.178Z,7.13
2023-04-28T02:16:18.851Z,7.20
2023-04-28T02:18:47.915Z,7.72
2023-04-28T02:21:16.880Z,7.40
2023-04-28T02:23:45.823Z,7.10
2023-04-28T02:26:14.825Z,6.70
2023-04-28T02:28:43.769Z,8.00
2023-04-28T02:31:14.849Z,7.05
2023-04-28T02:33:45.557Z,7.40
2023-04-28T02:36:14.604Z,7.25
2023-04-28T02:38:43.672Z,7.90
2023-04-28T02:41:12.915Z,7.38
2023-04-28T02:43:42.067Z,7.60
2023-04-28T02:46:12.070Z,7.65
2023-04-28T02:48:41.699Z,7.25
2023-04-28T02:51:12.707Z,7.68
2023-04-28T02:53:41.736Z,7.95
2023-04-28T02:56:10.802Z,7.72
2023-04-28T02:58:39.850Z,7.85
2023-04-28T03:01:08.913Z,7.60
2023-04-28T03:03:38.046Z,8.57
2023-04-28T03:06:07.717Z,7.90
2023-04-28T03:08:38.353Z,7.30
2023-04-28T03:11:07.441Z,8.60
2023-04-28T03:13:37.089Z,7.82
2023-04-28T03:16:07.113Z,8.43
2023-04-28T03:18:36.451Z,7.88
2023-04-28T03:21:05.642Z,9.02
2023-04-28T03:23:34.664Z,9.00
2023-04-28T03:26:05.278Z,8.95
2023-04-28T03:28:34.329Z,8.40
2023-04-28T03:31:03.697Z,8.00
2023-04-28T03:33:32.714Z,8.25
2023-04-28T03:36:01.810Z,8.90
2023-04-28T03:38:30.762Z,8.10
2023-04-28T03:40:59.707Z,8.45
2023-04-28T03:43:30.409Z,8.30
2023-04-28T03:45:59.368Z,9.23
2023-04-28T03:48:28.419Z,9.38
2023-04-28T03:50:57.527Z,8.93
2023-04-28T03:53:26.463Z,9.02
2023-04-28T03:55:55.494Z,9.52
2023-04-28T03:58:24.711Z,9.43
2023-04-28T04:00:55.337Z,9.30
2023-04-28T04:03:27.247Z,9.77
2023-04-28T04:05:56.667Z,11.00
2023-04-28T04:08:25.742Z,11.38
2023-04-28T04:10:55.747Z,11.38
2023-04-28T04:13:24.761Z,11.98
2023-04-28T04:15:55.496Z,12.27
2023-04-28T04:18:24.828Z,11.10
2023-04-28T04:20:58.124Z,12.18
2023-04-28T04:23:27.212Z,12.00
2023-04-28T04:25:56.538Z,12.05
2023-04-28T04:28:25.570Z,12.00
2023-04-28T04:30:56.236Z,12.65
2023-04-28T04:33:25.301Z,12.65
2023-04-28T04:35:54.473Z,13.60
2023-04-28T04:38:23.505Z,14.48
2023-04-28T04:40:52.563Z,14.73
2023-04-28T04:43:22.221Z,14.85
2023-04-28T04:45:51.365Z,14.75
2023-04-28T04:48:21.999Z,14.45
2023-04-28T04:50:51.033Z,13.43
2023-04-28T04:53:20.063Z,14.25
2023-04-28T04:55:49.097Z,13.23
2023-04-28T04:58:18.830Z,13.40
2023-04-28T05:00:47.813Z,13.90
2023-04-28T05:03:17.353Z,13.50
2023-04-28T05:05:48.723Z,14.60
2023-04-28T05:08:18.043Z,14.18
2023-04-28T05:10:47.124Z,14.82
2023-04-28T05:13:16.195Z,14.07
2023-04-28T05:15:45.192Z,15.07
2023-04-28T05:18:14.967Z,14.73
2023-04-28T05:20:44.072Z,15.88
2023-04-28T05:23:14.821Z,16.13
2023-04-28T05:25:43.816Z,16.42
2023-04-28T05:28:13.048Z,16.52
2023-04-28T05:30:42.170Z,18.10
2023-04-28T05:33:11.536Z,16.42
2023-04-28T05:35:40.628Z,18.05
2023-04-28T05:38:09.704Z,18.08
2023-04-28T05:40:40.341Z,17.70
2023-04-28T05:43:09.340Z,18.17
2023-04-28T05:45:38.309Z,19.05
2023-04-28T05:48:08.162Z,18.38
2023-04-28T05:50:38.912Z,18.92
2023-04-28T05:53:08.529Z,18.85
2023-04-28T05:55:37.542Z,18.98
2023-04-28T05:58:09.219Z,19.27
2023-04-28T06:00:38.208Z,19.15
2023-04-28T06:03:16.658Z,18.88
2023-04-28T06:05:46.291Z,18.77
2023-04-28T06:08:15.577Z,18.95
2023-04-28T06:10:44.585Z,19.98
2023-04-28T06:13:15.455Z,19.23
2023-04-28T06:15:44.517Z,18.90
2023-04-28T06:18:13.776Z,19.85
2023-04-28T06:20:42.838Z,19.48
2023-04-28T06:23:11.993Z,20.40
2023-04-28T06:25:40.959Z,20.67
2023-04-28T06:28:09.967Z,20.30
2023-04-28T06:30:40.568Z,21.02
2023-04-28T06:33:09.961Z,20.15
2023-04-28T06:35:39.982Z,20.45
2023-04-28T06:38:09.145Z,20.50
2023-04-28T06:40:38.232Z,20.60
2023-04-28T06:43:07.360Z,20.60
2023-04-28T06:45:36.379Z,21.52
2023-04-28T06:48:08.805Z,20.33
2023-04-28T06:50:39.014Z,21.50
2023-04-28T06:53:08.565Z,21.95
2023-04-28T06:55:37.734Z,20.70
2023-04-28T06:58:06.933Z,22.00
2023-04-28T07:00:36.427Z,22.33
2023-04-28T07:03:07.238Z,22.13
2023-04-28T07:05:37.126Z,23.00
2023-04-28T07:08:06.396Z,22.13
2023-04-28T07:10:35.387Z,22.98
2023-04-28T07:13:04.338Z,24.52
2023-04-28T07:15:33.373Z,23.23
2023-04-28T07:18:03.021Z,24.00
2023-04-28T07:20:33.667Z,24.33
2023-04-28T07:23:02.659Z,22.92
2023-04-28T07:25:31.724Z,24.67
2023-04-28T07:28:00.803Z,24.85
2023-04-28T07:30:30.060Z,24.25
2023-04-28T07:32:59.488Z,25.40
2023-04-28T07:35:28.748Z,24.95
2023-04-28T07:37:59.661Z,24.83
2023-04-28T07:40:28.639Z,25.50
2023-04-28T07:42:57.583Z,26.20
2023-04-28T07:45:27.102Z,24.92
2023-04-28T07:47:56.121Z,24.95
2023-04-28T07:50:25.685Z,25.45
2023-04-28T07:52:54.705Z,25.45
2023-04-28T07:55:25.381Z,26.35
2023-04-28T07:57:54.566Z,26.30
2023-04-28T08:00:23.643Z,27.33
2023-04-28T08:02:52.904Z,25.98
2023-04-28T08:05:22.230Z,27.52
2023-04-28T08:07:51.307Z,27.83
2023-04-28T08:10:20.320Z,27.50
2023-04-28T08:12:51.010Z,28.00
2023-04-28T08:15:20.349Z,28.38
2023-04-28T08:17:49.432Z,29.60
2023-04-28T08:20:23.162Z,28.88
2023-04-28T08:22:53.635Z,28.50
2023-04-28T08:25:22.894Z,28.95
2023-04-28T08:27:54.810Z,28.45
2023-04-28T08:30:24.870Z,29.27
2023-04-28T08:32:54.020Z,29.42
2023-04-28T08:35:23.233Z,30.40
2023-04-28T08:37:53.876Z,29.92
2023-04-28T08:40:24.997Z,29.65
2023-04-28T08:42:57.200Z,30.08
2023-04-28T08:45:28.380Z,30.70
2023-04-28T08:48:01.052Z,29.20
2023-04-28T08:50:32.722Z,30.52
2023-04-28T08:53:05.456Z,31.20
2023-04-28T08:55:35.831Z,32.45
2023-04-28T08:58:07.007Z,30.77
2023-04-28T09:00:39.060Z,31.08
2023-04-28T09:03:09.857Z,31.08
2023-04-28T09:05:39.054Z,29.73
2023-04-28T09:08:08.788Z,30.50
2023-04-28T09:10:38.994Z,31.50
2023-04-28T09:13:09.904Z,32.00
2023-04-28T09:15:43.168Z,33.03
2023-04-28T09:18:16.561Z,32.25
2023-04-28T09:20:46.756Z,30.95
2023-04-28T09:23:18.279Z,33.60
2023-04-28T09:26:05.234Z,32.38
2023-04-28T09:28:37.243Z,32.05
2023-04-28T09:31:06.402Z,32.35
2023-04-28T09:33:35.617Z,32.95
2023-04-28T09:36:04.716Z,31.13
2023-04-28T09:38:44.172Z,33.45
2023-04-28T09:41:13.212Z,31.25
2023-04-28T09:43:43.842Z,31.30
2023-04-28T09:46:13.250Z,33.13
2023-04-28T09:48:42.316Z,32.67
2023-04-28T09:51:13.026Z,33.63
2023-04-28T09:53:42.361Z,33.15
2023-04-28T09:56:12.682Z,34.10
2023-04-28T09:58:46.474Z,34.30
2023-04-28T10:01:16.134Z,31.30
2023-04-28T10:03:47.316Z,31.92
2023-04-28T10:06:16.918Z,33.05
2023-04-28T10:08:49.066Z,33.42
2023-04-28T10:11:18.582Z,33.65
2023-04-28T10:13:50.078Z,33.42
2023-04-28T10:16:19.921Z,32.40
2023-04-28T10:18:48.975Z,32.90
2023-04-28T10:21:22.133Z,32.50
2023-04-28T10:24:07.204Z,36.17
2023-04-28T10:27:06.579Z,35.22
2023-04-28T10:29:38.430Z,34.05
2023-04-28T10:32:24.851Z,33.13
2023-04-28T10:34:54.036Z,32.30
2023-04-28T10:38:00.899Z,32.03
2023-04-28T10:40:36.536Z,34.10
2023-04-28T10:43:08.708Z,33.63
2023-04-28T10:46:10.073Z,34.95
2023-04-28T10:48:59.799Z,34.17
2023-04-28T10:51:32.792Z,33.47
2023-04-28T10:54:20.444Z,32.30
2023-04-28T10:57:17.742Z,33.58
2023-04-28T11:02:44.420Z,32.35
2023-04-28T11:05:16.081Z,33.35
2023-04-28T11:08:32.286Z,34.10
2023-04-28T11:11:21.976Z,35.42
2023-04-28T11:13:51.916Z,35.10
2023-04-28T11:16:22.934Z,35.05
2023-04-28T11:18:59.954Z,34.85
2023-04-28T11:21:29.396Z,36.35
2023-04-28T11:23:59.683Z,36.95
2023-04-28T11:26:29.415Z,35.67
2023-04-28T11:28:59.604Z,36.53
2023-04-28T11:31:29.498Z,36.60
2023-04-28T11:34:04.768Z,35.33
2023-04-28T11:36:36.805Z,36.83
2023-04-28T11:39:08.202Z,35.35
2023-04-28T11:41:37.738Z,35.67
2023-04-28T11:44:14.005Z,34.85
2023-04-28T11:49:22.787Z,34.00
2023-04-28T11:51:52.629Z,34.80
2023-04-28T11:54:26.294Z,35.75
2023-04-28T11:56:58.897Z,35.17
2023-04-28T11:59:28.981Z,35.17
2023-04-28T12:02:00.216Z,36.75
2023-04-28T12:04:41.286Z,33.97
2023-04-28T12:07:11.430Z,35.08
2023-04-28T12:09:42.556Z,35.22
2023-04-28T12:12:13.461Z,35.47
2023-04-28T12:14:59.120Z,34.63
2023-04-28T12:17:29.019Z,34.45
2023-04-28T12:20:01.777Z,35.20
2023-04-28T12:22:31.501Z,34.78
2023-04-28T12:25:08.646Z,35.45
2023-04-28T12:27:40.185Z,33.70
2023-04-28T12:30:26.921Z,35.25
2023-04-28T12:35:28.896Z,34.35
2023-04-28T12:37:59.676Z,34.17
2023-04-28T12:40:28.756Z,32.10
2023-04-28T12:42:58.132Z,34.67
2023-04-28T12:45:27.105Z,35.47
2023-04-28T12:47:56.296Z,34.58
2023-04-28T12:50:28.700Z,34.42
2023-04-28T12:52:58.703Z,34.83
2023-04-28T12:55:28.040Z,35.45
2023-04-28T12:57:57.147Z,33.67
2023-04-28T13:00:26.392Z,34.92
2023-04-28T13:02:55.442Z,33.45
2023-04-28T13:05:24.541Z,34.90
2023-04-28T13:07:55.378Z,35.22
2023-04-28T13:10:24.540Z,34.15
2023-04-28T13:12:53.481Z,35.40
2023-04-28T13:15:22.718Z,35.50
2023-04-28T13:17:51.962Z,34.15
2023-04-28T13:20:20.989Z,36.67
2023-04-28T13:22:50.223Z,34.72
2023-04-28T13:25:20.993Z,34.08
2023-04-28T13:28:06.166Z,33.92
2023-04-28T13:30:35.701Z,34.25
2023-04-28T13:33:04.714Z,34.45
2023-04-28T13:35:34.198Z,34.65
2023-04-28T13:38:03.266Z,34.30
2023-04-28T13:40:34.881Z,34.35
2023-04-28T13:43:04.542Z,32.60
2023-04-28T13:45:33.630Z,34.53
2023-04-28T13:48:04.128Z,32.10
2023-04-28T13:50:33.453Z,33.85
2023-04-28T13:53:02.426Z,32.15
2023-04-28T13:55:33.598Z,32.72
2023-04-28T13:58:05.516Z,32.60
2023-04-28T14:00:35.627Z,32.35
2023-04-28T14:03:04.891Z,33.85
2023-04-28T14:05:45.813Z,32.47
2023-04-28T14:08:20.116Z,34.25
2023-04-28T14:10:52.082Z,32.42
2023-04-28T14:13:21.867Z,34.08
2023-04-28T14:15:59.244Z,34.50
2023-04-28T14:18:28.931Z,32.80
2023-04-28T14:20:57.978Z,32.40
2023-04-28T14:23:27.553Z,32.65
2023-04-28T14:25:59.136Z,32.80
2023-04-28T14:28:29.197Z,31.42
2023-04-28T14:30:58.320Z,32.65
2023-04-28T14:33:27.830Z,30.20
2023-04-28T14:35:56.808Z,30.58
2023-04-28T14:38:25.900Z,31.17
2023-04-28T14:40:56.534Z,33.85
2023-04-28T14:43:25.910Z,32.47
2023-04-28T14:45:55.284Z,34.85
2023-04-28T14:48:24.572Z,33.20
2023-04-28T14:50:53.798Z,30.35
2023-04-28T14:53:22.778Z,33.17
2023-04-28T14:55:51.853Z,30.98
2023-04-28T14:58:22.605Z,31.13
2023-04-28T15:00:53.165Z,32.22
2023-04-28T15:03:22.506Z,32.72
2023-04-28T15:05:51.639Z,28.75
2023-04-28T15:08:20.653Z,29.60
2023-04-28T15:10:49.625Z,28.48
2023-04-28T15:13:18.814Z,30.00
2023-04-28T15:15:49.839Z,29.98
2023-04-28T15:18:18.941Z,32.45
2023-04-28T15:20:48.683Z,29.40
2023-04-28T15:23:18.289Z,30.02
2023-04-28T15:25:48.023Z,30.33
2023-04-28T15:28:17.210Z,29.30
2023-04-28T15:30:46.505Z,28.73
2023-04-28T15:33:20.252Z,32.05
2023-04-28T15:35:49.279Z,29.95
2023-04-28T15:38:18.501Z,29.77
2023-04-28T15:40:47.962Z,31.30
2023-04-28T15:43:17.052Z,30.90
2023-04-28T15:45:47.712Z,28.42
2023-04-28T15:48:18.420Z,28.23
2023-04-28T15:50:47.401Z,30.45
2023-04-28T15:53:16.557Z,30.95
2023-04-28T15:55:46.868Z,28.60
2023-04-28T15:58:15.890Z,27.70
2023-04-28T16:00:46.608Z,28.63
2023-04-28T16:03:15.803Z,29.48
2023-04-28T16:05:46.706Z,26.80
2023-04-28T16:08:16.268Z,27.77
2023-04-28T16:10:45.464Z,26.13
2023-04-28T16:13:14.476Z,27.55
2023-04-28T16:15:43.732Z,27.08
2023-04-28T16:18:12.885Z,26.50
2023-04-28T16:20:42.136Z,26.38
2023-04-28T16:23:14.049Z,26.58
2023-04-28T16:25:43.576Z,26.77
2023-04-28T16:28:12.525Z,26.15
2023-04-28T16:30:41.912Z,28.00
2023-04-28T16:33:11.140Z,27.42
2023-04-28T16:35:40.088Z,25.30
2023-04-28T16:38:09.778Z,27.40
2023-04-28T16:40:40.449Z,26.48
2023-04-28T16:43:09.705Z,27.65
2023-04-28T16:45:38.750Z,25.52
2023-04-28T16:48:07.835Z,26.98
2023-04-28T16:50:38.695Z,26.15
2023-04-28T16:53:09.393Z,26.98
2023-04-28T16:55:40.061Z,25.45
2023-04-28T16:58:09.036Z,25.83
2023-04-28T17:00:38.032Z,26.92
2023-04-28T17:03:07.149Z,21.75
2023-04-28T17:05:36.731Z,27.02
2023-04-28T17:08:05.748Z,27.90
2023-04-28T17:10:38.419Z,27.70
2023-04-28T17:13:10.008Z,28.13
2023-04-28T17:15:39.349Z,26.83
2023-04-28T17:18:08.562Z,26.10
2023-04-28T17:20:39.045Z,26.73
2023-04-28T17:23:08.004Z,26.05
2023-04-28T17:25:39.692Z,23.42
2023-04-28T17:28:10.316Z,25.33
2023-04-28T17:30:40.781Z,25.65
2023-04-28T17:33:11.347Z,26.63
2023-04-28T17:35:40.625Z,27.35
2023-04-28T17:38:09.652Z,26.30
2023-04-28T17:40:39.049Z,22.75
2023-04-28T17:43:10.215Z,27.30
2023-04-28T17:45:39.209Z,28.65
2023-04-28T17:48:08.464Z,28.48
2023-04-28T17:50:37.534Z,28.13
2023-04-28T17:53:06.550Z,25.65
2023-04-28T17:55:35.511Z,30.08
2023-04-28T17:58:04.931Z,23.10
2023-04-28T18:00:35.580Z,28.95
2023-04-28T18:03:04.638Z,32.42
2023-04-28T18:05:35.955Z,30.15
2023-04-28T18:08:05.270Z,26.55
2023-04-28T18:10:35.128Z,30.08
2023-04-28T18:13:04.335Z,28.83
2023-04-28T18:15:35.000Z,30.95
2023-04-28T18:18:04.348Z,30.42
2023-04-28T18:20:33.468Z,28.15
2023-04-28T18:23:02.984Z,30.80
2023-04-28T18:25:33.119Z,28.42
2023-04-28T18:28:02.581Z,29.90
2023-04-28T18:30:40.211Z,33.00
2023-04-28T18:33:11.480Z,32.92
2023-04-28T18:35:40.553Z,29.05
2023-04-28T18:38:09.508Z,31.17
2023-04-28T18:40:39.604Z,26.23
2023-04-28T18:43:11.459Z,32.53
2023-04-28T18:45:42.659Z,29.27
2023-04-28T18:48:14.814Z,28.08
2023-04-28T18:50:43.870Z,29.58
2023-04-28T18:53:12.916Z,26.08
2023-04-28T18:55:41.912Z,35.17
2023-04-28T18:58:11.600Z,31.00
2023-04-28T19:00:40.685Z,30.25
2023-04-28T19:03:10.568Z,29.55
2023-04-28T19:05:43.966Z,28.40
2023-04-28T19:08:13.264Z,26.27
2023-04-28T19:10:42.357Z,32.08
2023-04-28T19:13:12.436Z,28.73
2023-04-28T19:15:41.487Z,29.92
2023-04-28T19:18:10.564Z,27.48
2023-04-28T19:20:43.556Z,27.58
2023-04-28T19:23:12.557Z,26.00
2023-04-28T19:25:41.531Z,27.40
2023-04-28T19:28:12.478Z,26.23
2023-04-28T19:30:41.517Z,27.65
2023-04-28T19:33:10.552Z,25.23
2023-04-28T19:35:41.318Z,23.73
2023-04-28T19:38:10.452Z,26.05
2023-04-28T19:40:39.984Z,25.73
2023-04-28T19:43:08.968Z,23.23
2023-04-28T19:45:37.945Z,22.98
2023-04-28T19:48:07.950Z,23.13
2023-04-28T19:50:39.152Z,27.25
2023-04-28T19:53:10.174Z,24.70
2023-04-28T19:55:39.501Z,28.67
2023-04-28T19:58:10.623Z,29.40
2023-04-28T20:00:39.670Z,23.35
2023-04-28T20:03:09.622Z,25.23
2023-04-28T20:05:39.825Z,25.63
2023-04-28T20:08:10.499Z,24.02
2023-04-28T20:10:39.468Z,22.15
2023-04-28T20:13:08.512Z,22.75
2023-04-28T20:15:37.769Z,22.63
2023-04-28T20:18:06.842Z,22.30
2023-04-28T20:20:35.989Z,25.25
2023-04-28T20:23:05.018Z,24.42
2023-04-28T20:25:37.397Z,24.70
2023-04-28T20:28:06.772Z,26.45
2023-04-28T20:30:35.726Z,26.35
2023-04-28T20:33:04.815Z,26.35
2023-04-28T20:35:33.797Z,24.40
2023-04-28T20:38:02.906Z,26.23
2023-04-28T20:40:31.834Z,25.10
2023-04-28T20:43:04.204Z,26.05
2023-04-28T20:45:33.275Z,23.60
2023-04-28T20:48:03.164Z,21.17
2023-04-28T20:50:34.125Z,22.02
2023-04-28T20:53:03.129Z,22.40
2023-04-28T20:55:32.363Z,22.38
2023-04-28T20:58:03.604Z,23.63
2023-04-28T21:00:34.470Z,19.67
2023-04-28T21:03:05.394Z,20.45
2023-04-28T21:05:34.516Z,24.27
2023-04-28T21:08:03.472Z,21.85
2023-04-28T21:10:33.818Z,22.38
2023-04-28T21:13:04.764Z,20.02
2023-04-28T21:15:38.432Z,19.98
2023-04-28T21:18:07.595Z,20.35
2023-04-28T21:20:36.609Z,21.48
2023-04-28T21:23:05.680Z,19.67
2023-04-28T21:25:34.639Z,18.08
2023-04-28T21:28:05.593Z,22.70
2023-04-28T21:30:34.580Z,20.20
2023-04-28T21:33:03.890Z,23.67
2023-04-28T21:35:32.947Z,19.40
2023-04-28T21:38:01.980Z,20.48
2023-04-28T21:40:31.031Z,21.58
2023-04-28T21:43:00.352Z,19.40
2023-04-28T21:45:30.985Z,18.92
2023-04-28T21:48:01.003Z,18.20
2023-04-28T21:50:29.995Z,17.58
2023-04-28T21:53:00.098Z,18.20
2023-04-28T21:55:29.134Z,19.17
2023-04-28T21:58:00.113Z,19.50
2023-04-28T22:00:31.394Z,17.38
2023-04-28T22:03:00.602Z,17.17
2023-04-28T22:05:30.034Z,18.92
2023-04-28T22:07:59.160Z,15.85
2023-04-28T22:10:28.399Z,18.15
2023-04-28T22:12:57.416Z,16.20
2023-04-28T22:15:26.600Z,17.58
2023-04-28T22:17:57.329Z,18.02
2023-04-28T22:20:26.378Z,19.30
2023-04-28T22:22:55.480Z,17.90
2023-04-28T22:25:24.472Z,19.13
2023-04-28T22:27:53.555Z,20.00
2023-04-28T22:30:25.010Z,17.77
2023-04-28T22:32:56.739Z,17.05
2023-04-28T22:35:25.756Z,16.95
2023-04-28T22:37:54.964Z,17.30
2023-04-28T22:40:23.958Z,17.50
2023-04-28T22:42:53.048Z,18.40
2023-04-28T22:45:22.251Z,16.00
2023-04-28T22:47:51.368Z,16.35
2023-04-28T22:50:22.494Z,18.10
2023-04-28T22:52:51.506Z,15.35
2023-04-28T22:55:20.669Z,17.75
2023-04-28T22:57:49.781Z,16.27
2023-04-28T23:00:19.018Z,16.85
2023-04-28T23:02:48.191Z,15.50
2023-04-28T23:05:17.312Z,16.20
2023-04-28T23:07:48.200Z,15.30
2023-04-28T23:10:19.184Z,13.77
2023-04-28T23:12:48.330Z,16.83
2023-04-28T23:15:17.554Z,15.38
2023-04-28T23:17:46.627Z,16.13
2023-04-28T23:20:15.904Z,17.42
2023-04-28T23:22:46.551Z,16.05
2023-04-28T23:25:16.052Z,15.73
2023-04-28T23:27:45.067Z,15.07
2023-04-28T23:30:14.775Z,15.10
2023-04-28T23:32:44.601Z,15.63
2023-04-28T23:35:14.826Z,15.00
2023-04-28T23:37:43.862Z,13.90
2023-04-28T23:40:15.095Z,14.75
2023-04-28T23:42:44.056Z,14.25
2023-04-28T23:45:13.395Z,14.00
2023-04-28T23:47:42.641Z,12.30
2023-04-28T23:50:12.385Z,13.57
2023-04-28T23:52:41.670Z,12.23
2023-04-28T23:55:13.724Z,12.13
2023-04-28T23:57:44.414Z,11.93
